Time;durP1;ratioP1;P1;durP2;ratioP2;P2;SDS_P1;SDS_P2;PMS_P1;PMS_P2;Temp;Humidity;BMP_temperature;BMP_pressure;BME280_temperature;BME280_humidity;BME280_pressure;Samples;Min_cycle;Max_cycle;Signal;HPM_P1;HPM_P2
2022/11/19 00:02:17;;;;;;;17.17;16.27;;;;;;;;;;4776447;30;20044;-84
2022/11/19 00:04:44;;;;;;;14.88;13.93;;;;;;;;;;4767290;30;20497;-83
2022/11/19 00:07:12;;;;;;;15.90;15.10;;;;;;;;;;4775059;30;20065;-84
2022/11/19 00:09:39;;;;;;;16.33;15.43;;;;;;;;;;4754682;30;20055;-84
2022/11/19 00:14:52;;;;;;;12.38;11.70;;;;;;;;;;4782586;29;20058;-84
2022/11/19 00:17:20;;;;;;;13.73;13.05;;;;;;;;;;4771954;30;20104;-84
2022/11/19 00:19:47;;;;;;;15.57;14.75;;;;;;;;;;4764953;30;20109;-84
2022/11/19 00:22:14;;;;;;;16.35;15.45;;;;;;;;;;4762630;30;20043;-85
2022/11/19 00:24:41;;;;;;;14.23;13.43;;;;;;;;;;4781577;30;20057;-84
2022/11/19 00:27:09;;;;;;;14.18;13.38;;;;;;;;;;4779580;30;20138;-84
2022/11/19 00:29:36;;;;;;;15.70;14.93;;;;;;;;;;4780784;30;20048;-84
2022/11/19 00:32:04;;;;;;;15.70;14.82;;;;;;;;;;4781868;30;20082;-84
2022/11/19 00:34:31;;;;;;;18.30;17.30;;;;;;;;;;4768737;30;20060;-85
2022/11/19 00:36:59;;;;;;;18.70;17.67;;;;;;;;;;4778417;30;20047;-83
2022/11/19 00:39:26;;;;;;;18.08;17.08;;;;;;;;;;4765221;30;20055;-85
2022/11/19 00:41:53;;;;;;;12.60;11.93;;;;;;;;;;4773152;30;20043;-84
2022/11/19 00:44:20;;;;;;;14.35;13.60;;;;;;;;;;4771632;30;20138;-85
2022/11/19 00:46:48;;;;;;;12.57;11.93;;;;;;;;;;4772679;30;20562;-85
2022/11/19 00:49:15;;;;;;;13.63;12.93;;;;;;;;;;4768814;30;20052;-83
2022/11/19 00:51:42;;;;;;;14.40;13.60;;;;;;;;;;4771856;29;20048;-83
2022/11/19 00:54:10;;;;;;;14.52;13.70;;;;;;;;;;4775980;30;20526;-83
2022/11/19 00:56:37;;;;;;;13.07;12.48;;;;;;;;;;4758566;30;20500;-83
2022/11/19 00:59:04;;;;;;;5.88;5.63;;;;;;;;;;4784020;30;20039;-84
2022/11/19 01:01:32;;;;;;;11.15;10.57;;;;;;;;;;4785127;29;20070;-84
2022/11/19 01:03:59;;;;;;;12.00;11.32;;;;;;;;;;4749757;30;20115;-84
2022/11/19 01:06:27;;;;;;;13.80;13.13;;;;;;;;;;4764427;30;20143;-83
2022/11/19 01:08:54;;;;;;;14.73;13.93;;;;;;;;;;4784681;30;20051;-84
2022/11/19 01:11:23;;;;;;;14.40;13.65;;;;;;;;;;4772973;30;20147;-84
2022/11/19 01:14:05;;;;;;;13.43;12.70;;;;;;;;;;4766719;30;20050;-83
2022/11/19 01:16:37;;;;;;;14.70;13.98;;;;;;;;;;4744058;29;20055;-83
2022/11/19 01:19:08;;;;;;;11.73;11.15;;;;;;;;;;4782544;29;20534;-83
2022/11/19 01:21:37;;;;;;;13.90;13.07;;;;;;;;;;4771475;30;20052;-83
2022/11/19 01:24:05;;;;;;;13.80;13.00;;;;;;;;;;4763383;29;20051;-84
2022/11/19 01:26:32;;;;;;;12.35;11.75;;;;;;;;;;4783526;29;20043;-84
2022/11/19 01:28:59;;;;;;;15.80;15.00;;;;;;;;;;4779253;30;20419;-84
2022/11/19 01:31:28;;;;;;;14.85;13.95;;;;;;;;;;4773006;30;20078;-84
2022/11/19 01:33:56;;;;;;;15.27;14.48;;;;;;;;;;4775933;30;20059;-83
2022/11/19 01:36:25;;;;;;;18.90;17.75;;;;;;;;;;4781494;29;20451;-84
2022/11/19 01:38:53;;;;;;;17.88;16.98;;;;;;;;;;4774861;30;20085;-84
2022/11/19 01:41:22;;;;;;;12.13;11.48;;;;;;;;;;4770507;30;20051;-84
2022/11/19 01:43:49;;;;;;;15.60;14.50;;;;;;;;;;4747862;30;20636;-83
2022/11/19 01:46:21;;;;;;;12.68;11.98;;;;;;;;;;4787324;29;20387;-86
2022/11/19 01:48:48;;;;;;;17.25;16.25;;;;;;;;;;4773769;29;20413;-84
2022/11/19 01:51:18;;;;;;;16.10;15.02;;;;;;;;;;4764927;29;20089;-83
2022/11/19 01:53:48;;;;;;;13.05;12.27;;;;;;;;;;4778328;29;20056;-85
2022/11/19 01:56:16;;;;;;;17.73;16.52;;;;;;;;;;4773955;30;20048;-82
2022/11/19 01:58:45;;;;;;;17.15;16.05;;;;;;;;;;4785905;30;20565;-83
2022/11/19 02:01:12;;;;;;;16.27;15.27;;;;;;;;;;4756699;30;20052;-83
2022/11/19 02:03:40;;;;;;;12.68;11.93;;;;;;;;;;4774522;30;20054;-84
2022/11/19 02:06:07;;;;;;;12.10;11.40;;;;;;;;;;4795460;29;20107;-84
2022/11/19 02:08:34;;;;;;;7.75;7.35;;;;;;;;;;4789123;29;20063;-84
2022/11/19 02:11:09;;;;;;;18.13;16.88;;;;;;;;;;4781407;30;20540;-83
2022/11/19 02:13:40;;;;;;;16.42;15.38;;;;;;;;;;4774851;30;20060;-84
2022/11/19 02:16:29;;;;;;;18.58;17.35;;;;;;;;;;4780192;29;20055;-84
2022/11/19 02:19:11;;;;;;;12.82;12.07;;;;;;;;;;4776777;30;20537;-84
2022/11/19 02:21:46;;;;;;;15.98;14.98;;;;;;;;;;4748247;30;20047;-84
2022/11/19 02:24:13;;;;;;;13.07;12.10;;;;;;;;;;4763059;30;20039;-84
2022/11/19 02:26:40;;;;;;;15.48;14.38;;;;;;;;;;4781821;30;20079;-84
2022/11/19 02:29:26;;;;;;;25.55;23.83;;;;;;;;;;4776554;30;20699;-84
2022/11/19 02:32:03;;;;;;;15.50;14.38;;;;;;;;;;4763574;30;20043;-84
2022/11/19 02:34:41;;;;;;;18.50;16.90;;;;;;;;;;4754270;29;20048;-84
2022/11/19 02:37:15;;;;;;;13.98;13.07;;;;;;;;;;4774731;30;20426;-84
2022/11/19 02:39:54;;;;;;;9.10;8.45;;;;;;;;;;4776245;30;20059;-84
2022/11/19 02:42:30;;;;;;;13.52;12.63;;;;;;;;;;4777869;30;20047;-83
2022/11/19 02:45:20;;;;;;;15.52;14.43;;;;;;;;;;4775622;30;20147;-84
2022/11/19 02:47:50;;;;;;;8.00;7.55;;;;;;;;;;4775122;30;20055;-84
2022/11/19 02:50:36;;;;;;;13.23;12.38;;;;;;;;;;4761796;30;20128;-84
2022/11/19 02:53:03;;;;;;;11.68;10.98;;;;;;;;;;4769417;30;20043;-84
2022/11/19 02:55:31;;;;;;;7.75;7.35;;;;;;;;;;4771349;30;20542;-85
2022/11/19 03:04:28;;;;;;;12.82;12.05;;;;;;;;;;4773061;30;20071;-84
2022/11/19 03:06:35;;;;;;;10.75;10.15;;;;;;;;;;4763782;30;20066;-83
2022/11/19 03:09:03;;;;;;;12.95;12.23;;;;;;;;;;4774332;30;20097;-83
2022/11/19 03:11:31;;;;;;;12.10;11.15;;;;;;;;;;4765667;30;20082;-84
2022/11/19 03:17:14;;;;;;;9.77;9.18;;;;;;;;;;4783122;24;20095;-80
2022/11/19 03:19:46;;;;;;;7.95;7.30;;;;;;;;;;4824996;29;20061;-80
2022/11/19 03:22:23;;;;;;;15.68;14.65;;;;;;;;;;4803866;29;20053;-82
2022/11/19 03:24:55;;;;;;;14.43;13.27;;;;;;;;;;4816972;29;20056;-81
2022/11/19 03:27:22;;;;;;;;;;;;;;;;;;4824469;29;20057;-82
2022/11/19 03:29:52;;;;;;;7.10;6.65;;;;;;;;;;4817461;29;20378;-81
2022/11/19 03:32:21;;;;;;;8.43;7.95;;;;;;;;;;4819432;29;20151;-80
2022/11/19 03:34:51;;;;;;;9.82;9.25;;;;;;;;;;4825805;29;20138;-81
2022/11/19 03:37:20;;;;;;;13.20;12.40;;;;;;;;;;4812612;29;20050;-81
2022/11/19 03:39:48;;;;;;;10.65;9.93;;;;;;;;;;4804744;29;20233;-82
2022/11/19 03:42:16;;;;;;;12.00;11.27;;;;;;;;;;4790278;29;20066;-81
2022/11/19 03:44:47;;;;;;;13.75;12.98;;;;;;;;;;4829926;29;20096;-82
2022/11/19 03:47:16;;;;;;;11.65;11.02;;;;;;;;;;4835774;29;20138;-81
2022/11/19 03:49:45;;;;;;;12.18;11.40;;;;;;;;;;4780972;29;20094;-80
2022/11/19 03:52:15;;;;;;;12.68;11.82;;;;;;;;;;4812636;29;20099;-80
2022/11/19 03:54:42;;;;;;;12.68;11.98;;;;;;;;;;4805508;29;20062;-80
2022/11/19 03:57:11;;;;;;;13.02;12.23;;;;;;;;;;4823569;29;20060;-82
2022/11/19 03:59:38;;;;;;;13.77;12.88;;;;;;;;;;4800303;29;20501;-82
2022/11/19 04:02:06;;;;;;;14.15;13.20;;;;;;;;;;4838493;29;20066;-81
2022/11/19 04:04:34;;;;;;;13.05;12.27;;;;;;;;;;4839754;29;20046;-80
2022/11/19 04:07:02;;;;;;;15.57;14.65;;;;;;;;;;4839297;29;20088;-80
2022/11/19 04:09:29;;;;;;;12.30;11.60;;;;;;;;;;4830201;29;20098;-81
2022/11/19 04:11:56;;;;;;;13.00;12.20;;;;;;;;;;4827447;29;20043;-80
2022/11/19 04:14:24;;;;;;;13.65;12.63;;;;;;;;;;4832962;29;20086;-80
2022/11/19 04:16:51;;;;;;;13.35;12.57;;;;;;;;;;4838978;29;20145;-80
2022/11/19 04:19:18;;;;;;;13.88;12.98;;;;;;;;;;4833386;29;20042;-80
2022/11/19 04:21:46;;;;;;;11.00;10.43;;;;;;;;;;4819115;29;20042;-80
2022/11/19 04:24:13;;;;;;;8.70;8.20;;;;;;;;;;4839733;29;20049;-81
2022/11/19 04:26:40;;;;;;;12.23;11.55;;;;;;;;;;4825331;29;20042;-81
2022/11/19 04:29:07;;;;;;;12.18;11.45;;;;;;;;;;4818894;29;20158;-81
2022/11/19 04:31:35;;;;;;;12.23;11.57;;;;;;;;;;4841264;29;20102;-81
2022/11/19 04:34:03;;;;;;;9.35;8.80;;;;;;;;;;4841665;29;20054;-80
2022/11/19 04:36:30;;;;;;;12.20;11.50;;;;;;;;;;4825975;29;20046;-81
2022/11/19 04:38:57;;;;;;;12.57;11.73;;;;;;;;;;4823320;29;20070;-80
2022/11/19 04:41:24;;;;;;;14.20;13.18;;;;;;;;;;4819705;29;20058;-80
2022/11/19 04:43:51;;;;;;;8.02;7.60;;;;;;;;;;4823329;29;20575;-80
2022/11/19 04:46:19;;;;;;;15.25;14.13;;;;;;;;;;4820090;29;20127;-80
2022/11/19 04:48:46;;;;;;;12.77;11.95;;;;;;;;;;4805199;29;20050;-81
2022/11/19 04:51:13;;;;;;;12.13;11.38;;;;;;;;;;4829807;29;20132;-82
2022/11/19 04:53:40;;;;;;;11.02;10.25;;;;;;;;;;4813644;29;20161;-79
2022/11/19 04:56:08;;;;;;;13.98;13.10;;;;;;;;;;4804718;29;20343;-79
2022/11/19 04:58:35;;;;;;;12.30;11.55;;;;;;;;;;4827208;29;20054;-80
2022/11/19 05:01:02;;;;;;;13.38;12.52;;;;;;;;;;4804854;29;20509;-78
2022/11/19 05:03:30;;;;;;;10.27;9.65;;;;;;;;;;4805743;29;20456;-80
2022/11/19 05:05:57;;;;;;;13.88;12.95;;;;;;;;;;4824828;29;20123;-79
2022/11/19 05:08:25;;;;;;;12.38;11.60;;;;;;;;;;4801731;29;20058;-79
2022/11/19 05:10:52;;;;;;;11.93;11.20;;;;;;;;;;4818703;29;20064;-80
2022/11/19 05:13:19;;;;;;;16.25;15.30;;;;;;;;;;4810040;29;20074;-79
2022/11/19 05:15:46;;;;;;;7.05;6.68;;;;;;;;;;4791095;29;20133;-81
2022/11/19 05:18:14;;;;;;;8.70;8.15;;;;;;;;;;4809116;29;20050;-79
2022/11/19 05:20:41;;;;;;;6.20;5.93;;;;;;;;;;4811852;29;20074;-79
2022/11/19 05:23:08;;;;;;;11.30;10.70;;;;;;;;;;4824108;29;20397;-81
2022/11/19 05:25:36;;;;;;;10.93;10.18;;;;;;;;;;4826585;29;20151;-79
2022/11/19 05:28:03;;;;;;;6.13;5.80;;;;;;;;;;4802355;29;20062;-80
2022/11/19 05:30:30;;;;;;;5.85;5.53;;;;;;;;;;4814843;29;20057;-78
2022/11/19 05:32:58;;;;;;;9.48;8.88;;;;;;;;;;4800344;29;20050;-79
2022/11/19 05:35:25;;;;;;;9.57;8.98;;;;;;;;;;4818151;29;20066;-78
2022/11/19 05:37:52;;;;;;;9.15;8.65;;;;;;;;;;4821980;29;20049;-83
2022/11/19 05:40:19;;;;;;;8.35;7.78;;;;;;;;;;4803715;29;20072;-79
2022/11/19 05:42:46;;;;;;;10.15;9.43;;;;;;;;;;4824716;29;20390;-78
2022/11/19 05:45:14;;;;;;;7.80;7.25;;;;;;;;;;4824019;29;20046;-80
2022/11/19 05:47:42;;;;;;;7.65;7.18;;;;;;;;;;4821758;29;20053;-80
2022/11/19 05:50:15;;;;;;;7.35;6.90;;;;;;;;;;4812197;29;20038;-80
2022/11/19 05:52:42;;;;;;;9.55;8.95;;;;;;;;;;4790478;29;20123;-79
2022/11/19 05:55:09;;;;;;;6.32;5.90;;;;;;;;;;4822062;29;20050;-80
2022/11/19 05:57:36;;;;;;;6.07;5.80;;;;;;;;;;4801336;29;20051;-80
2022/11/19 06:00:04;;;;;;;5.45;5.13;;;;;;;;;;4826804;29;20131;-79
2022/11/19 06:02:38;;;;;;;5.53;5.13;;;;;;;;;;4828387;29;20120;-79
2022/11/19 06:05:06;;;;;;;3.78;3.58;;;;;;;;;;4807977;29;20046;-78
2022/11/19 06:07:33;;;;;;;6.13;5.78;;;;;;;;;;4797786;29;20038;-82
2022/11/19 06:10:01;;;;;;;4.47;4.25;;;;;;;;;;4827830;29;20051;-79
2022/11/19 06:12:28;;;;;;;4.30;4.10;;;;;;;;;;4808381;29;20085;-79
2022/11/19 06:14:55;;;;;;;5.05;4.78;;;;;;;;;;4833671;29;20454;-79
2022/11/19 06:17:23;;;;;;;7.63;6.90;;;;;;;;;;4837492;29;20159;-79
2022/11/19 06:19:50;;;;;;;5.75;5.35;;;;;;;;;;4834536;29;20521;-81
2022/11/19 06:22:17;;;;;;;7.68;7.10;;;;;;;;;;4832652;29;20042;-79
2022/11/19 06:24:44;;;;;;;7.68;7.20;;;;;;;;;;4813112;29;20086;-80
2022/11/19 06:27:11;;;;;;;5.53;5.13;;;;;;;;;;4787110;29;20042;-79
2022/11/19 06:29:39;;;;;;;7.78;7.32;;;;;;;;;;4807299;29;20054;-79
2022/11/19 06:32:06;;;;;;;6.43;6.07;;;;;;;;;;4817108;29;20511;-79
2022/11/19 06:34:33;;;;;;;7.93;7.35;;;;;;;;;;4806848;29;20124;-79
2022/11/19 06:37:00;;;;;;;7.28;6.75;;;;;;;;;;4802016;29;20129;-79
2022/11/19 06:39:28;;;;;;;6.47;6.07;;;;;;;;;;4828053;29;20496;-78
2022/11/19 06:42:34;;;;;;;8.82;8.20;;;;;;;;;;4807630;29;20417;-79
2022/11/19 06:44:42;;;;;;;5.78;5.38;;;;;;;;;;4828552;29;20462;-79
2022/11/19 06:47:10;;;;;;;6.15;5.75;;;;;;;;;;4803660;29;20130;-80
2022/11/19 06:49:37;;;;;;;6.63;6.07;;;;;;;;;;4814005;29;20050;-79
2022/11/19 06:52:04;;;;;;;7.43;6.93;;;;;;;;;;4817860;29;20081;-79
2022/11/19 06:54:31;;;;;;;8.13;7.38;;;;;;;;;;4815407;29;20085;-79
2022/11/19 06:56:59;;;;;;;7.75;7.22;;;;;;;;;;4815092;29;20054;-80
2022/11/19 06:59:27;;;;;;;9.27;8.43;;;;;;;;;;4828888;29;20045;-81
2022/11/19 07:01:55;;;;;;;8.13;7.53;;;;;;;;;;4802261;29;20042;-81
2022/11/19 07:04:22;;;;;;;9.07;8.27;;;;;;;;;;4826102;29;20616;-81
2022/11/19 07:06:49;;;;;;;11.95;10.65;;;;;;;;;;4827970;29;20046;-80
2022/11/19 07:09:17;;;;;;;8.48;7.85;;;;;;;;;;4827301;29;20073;-80
2022/11/19 07:11:44;;;;;;;8.05;7.20;;;;;;;;;;4798462;29;20277;-81
2022/11/19 07:14:12;;;;;;;10.85;9.75;;;;;;;;;;4798206;29;20496;-80
2022/11/19 07:16:39;;;;;;;9.32;8.68;;;;;;;;;;4798281;29;20108;-81
2022/11/19 07:19:07;;;;;;;9.43;8.65;;;;;;;;;;4822714;29;20072;-79
2022/11/19 07:21:35;;;;;;;12.20;11.00;;;;;;;;;;4792275;29;20636;-80
2022/11/19 07:24:04;;;;;;;10.73;9.77;;;;;;;;;;4804322;29;20079;-81
2022/11/19 07:26:32;;;;;;;12.07;10.90;;;;;;;;;;4813713;29;20111;-78
2022/11/19 07:29:00;;;;;;;9.75;8.85;;;;;;;;;;4795210;29;20389;-79
2022/11/19 07:31:31;;;;;;;8.38;7.53;;;;;;;;;;4815612;29;20046;-80
2022/11/19 07:33:59;;;;;;;6.70;6.13;;;;;;;;;;4804238;29;20478;-80
2022/11/19 07:36:26;;;;;;;7.13;6.45;;;;;;;;;;4811445;29;20508;-80
2022/11/19 07:38:53;;;;;;;10.07;9.15;;;;;;;;;;4822275;29;20054;-79
2022/11/19 07:44:06;;;;;;;11.57;10.52;;;;;;;;;;4796591;29;20545;-80
2022/11/19 07:46:34;;;;;;;8.93;8.13;;;;;;;;;;4795293;29;20484;-80
2022/11/19 07:49:01;;;;;;;9.65;8.70;;;;;;;;;;4815866;29;20127;-80
2022/11/19 07:51:28;;;;;;;7.30;6.70;;;;;;;;;;4794733;29;20077;-80
2022/11/19 07:53:56;;;;;;;7.70;6.95;;;;;;;;;;4821165;29;20479;-81
2022/11/19 07:56:23;;;;;;;7.63;6.93;;;;;;;;;;4820030;29;20062;-81
2022/11/19 07:58:51;;;;;;;7.68;6.95;;;;;;;;;;4829420;29;20054;-79
2022/11/19 08:01:22;;;;;;;7.13;6.57;;;;;;;;;;4822752;29;20575;-81
2022/11/19 08:03:51;;;;;;;11.98;10.32;;;;;;;;;;4804647;29;20120;-83
2022/11/19 08:06:23;;;;;;;7.25;6.65;;;;;;;;;;4807499;29;20054;-80
2022/11/19 08:08:51;;;;;;;6.20;5.70;;;;;;;;;;4789080;29;20108;-81
2022/11/19 08:11:18;;;;;;;9.15;8.35;;;;;;;;;;4788918;29;20746;-81
2022/11/19 08:13:45;;;;;;;7.47;6.80;;;;;;;;;;4811412;29;20088;-81
2022/11/19 08:18:11;;;;;;;8.98;8.07;;;;;;;;;;4838152;29;20069;-82
2022/11/19 08:19:08;;;;;;;8.13;7.32;;;;;;;;;;4814550;29;20065;-82
2022/11/19 08:21:38;;;;;;;6.57;6.07;;;;;;;;;;4833124;29;20078;-88
2022/11/19 08:24:10;;;;;;;8.32;7.63;;;;;;;;;;4831583;29;20046;-81
2022/11/19 08:26:38;;;;;;;7.07;6.28;;;;;;;;;;4827895;29;20125;-82
2022/11/19 08:29:05;;;;;;;8.45;7.65;;;;;;;;;;4829219;29;20038;-82
2022/11/19 08:31:43;;;;;;;8.73;7.63;;;;;;;;;;4807430;29;20084;-84
2022/11/19 08:34:10;;;;;;;6.90;6.30;;;;;;;;;;4802440;29;20102;-83
2022/11/19 08:36:37;;;;;;;18.02;16.60;;;;;;;;;;4836476;29;20073;-83
2022/11/19 08:39:05;;;;;;;11.35;6.85;;;;;;;;;;4839631;29;20505;-82
2022/11/19 08:44:18;;;;;;;9.38;8.32;;;;;;;;;;4814796;29;20043;-82
2022/11/19 08:46:49;;;;;;;7.13;6.53;;;;;;;;;;4808697;29;20046;-81
2022/11/19 08:49:16;;;;;;;7.72;6.97;;;;;;;;;;4832354;29;20105;-82
2022/11/19 08:51:45;;;;;;;10.65;9.65;;;;;;;;;;4804387;29;20053;-81
2022/11/19 08:54:12;;;;;;;8.48;7.47;;;;;;;;;;4836704;29;20054;-85
2022/11/19 08:56:39;;;;;;;9.95;8.80;;;;;;;;;;4814388;29;20049;-81
2022/11/19 08:59:07;;;;;;;10.10;8.77;;;;;;;;;;4793584;29;20135;-82
2022/11/19 09:01:34;;;;;;;7.32;6.57;;;;;;;;;;4806743;29;20080;-81
2022/11/19 09:04:01;;;;;;;9.85;8.38;;;;;;;;;;4820571;29;20061;-82
2022/11/19 09:06:29;;;;;;;7.78;7.07;;;;;;;;;;4803003;29;20066;-81
2022/11/19 09:08:57;;;;;;;6.93;6.25;;;;;;;;;;4817416;29;20051;-83
2022/11/19 09:11:24;;;;;;;7.35;6.72;;;;;;;;;;4809639;29;20057;-82
2022/11/19 09:13:51;;;;;;;10.13;9.20;;;;;;;;;;4833411;29;20061;-82
2022/11/19 09:16:19;;;;;;;7.68;6.97;;;;;;;;;;4808400;29;20046;-83
2022/11/19 09:18:57;;;;;;;7.28;6.57;;;;;;;;;;4863327;24;20061;-84
2022/11/19 09:21:32;;;;;;;10.60;9.50;;;;;;;;;;4806593;29;20150;-82
2022/11/19 09:24:00;;;;;;;8.65;7.82;;;;;;;;;;4790023;29;20050;-83
2022/11/19 09:26:27;;;;;;;7.80;7.20;;;;;;;;;;4801871;29;20108;-81
2022/11/19 09:28:54;;;;;;;9.23;8.27;;;;;;;;;;4790226;29;20417;-84
2022/11/19 09:31:21;;;;;;;10.10;8.77;;;;;;;;;;4805906;29;20142;-82
2022/11/19 09:33:51;;;;;;;11.02;9.95;;;;;;;;;;4799609;29;20130;-83
2022/11/19 09:36:19;;;;;;;8.38;7.57;;;;;;;;;;4801772;29;20123;-82
2022/11/19 09:38:47;;;;;;;10.20;9.20;;;;;;;;;;4806359;29;20064;-82
2022/11/19 09:41:23;;;;;;;10.32;8.75;;;;;;;;;;4806720;29;20050;-83
2022/11/19 09:43:59;;;;;;;12.10;9.15;;;;;;;;;;4814337;29;20074;-82
2022/11/19 09:46:29;;;;;;;11.63;9.00;;;;;;;;;;4810858;29;20537;-81
2022/11/19 09:48:59;;;;;;;17.85;9.43;;;;;;;;;;4807225;29;20057;-82
2022/11/19 09:51:30;;;;;;;10.85;8.60;;;;;;;;;;4806507;29;20042;-84
2022/11/19 09:54:00;;;;;;;11.20;10.13;;;;;;;;;;4802313;29;20075;-82
2022/11/19 09:56:33;;;;;;;9.20;8.18;;;;;;;;;;4792912;29;20059;-82
2022/11/19 09:59:02;;;;;;;12.00;9.75;;;;;;;;;;4795055;29;20065;-82
2022/11/19 10:01:31;;;;;;;9.07;8.18;;;;;;;;;;4793307;29;20043;-81
2022/11/19 10:03:59;;;;;;;11.63;8.38;;;;;;;;;;4799541;29;20050;-82
2022/11/19 10:06:40;;;;;;;9.40;8.38;;;;;;;;;;4807944;29;20047;-83
2022/11/19 10:09:19;;;;;;;8.75;7.85;;;;;;;;;;4785409;30;20048;-83
2022/11/19 10:12:05;;;;;;;13.23;9.68;;;;;;;;;;4791160;29;20142;-83
2022/11/19 10:14:36;;;;;;;9.38;7.95;;;;;;;;;;4769651;29;20459;-84
2022/11/19 10:17:17;;;;;;;10.80;8.98;;;;;;;;;;4798179;29;20043;-82
2022/11/19 10:20:03;;;;;;;8.63;7.72;;;;;;;;;;4797598;29;20055;-83
2022/11/19 10:22:45;;;;;;;8.93;8.02;;;;;;;;;;4794378;29;20433;-82
2022/11/19 10:25:17;;;;;;;12.00;10.68;;;;;;;;;;4798818;29;20059;-82
2022/11/19 10:28:00;;;;;;;13.45;9.38;;;;;;;;;;4784731;29;20359;-83
2022/11/19 10:30:29;;;;;;;7.18;6.57;;;;;;;;;;4796202;29;20078;-82
2022/11/19 10:33:01;;;;;;;13.45;10.30;;;;;;;;;;4778160;29;20077;-83
2022/11/19 10:35:28;;;;;;;;;;;;;;;;;;4798866;29;20062;-81
2022/11/19 10:37:58;;;;;;;10.85;8.45;;;;;;;;;;4795388;29;19932;-82
2022/11/19 10:40:46;;;;;;;8.43;7.53;;;;;;;;;;4793723;29;20049;-83
2022/11/19 10:43:17;;;;;;;10.23;8.23;;;;;;;;;;4796655;29;20056;-82
2022/11/19 10:45:49;;;;;;;9.57;8.57;;;;;;;;;;4796430;29;20443;-82
2022/11/19 10:48:22;;;;;;;9.57;8.57;;;;;;;;;;4793771;29;20536;-81
2022/11/19 10:50:51;;;;;;;9.13;8.25;;;;;;;;;;4796912;29;20090;-83
2022/11/19 10:53:35;;;;;;;9.30;8.18;;;;;;;;;;4793420;29;20105;-82
2022/11/19 10:56:09;;;;;;;9.63;8.65;;;;;;;;;;4795635;29;20442;-82
2022/11/19 10:58:42;;;;;;;15.57;10.23;;;;;;;;;;4778190;29;20058;-82
2022/11/19 11:01:20;;;;;;;8.85;7.97;;;;;;;;;;4790968;29;20060;-83
2022/11/19 11:03:54;;;;;;;11.52;8.65;;;;;;;;;;4796487;29;20047;-81
2022/11/19 11:06:21;;;;;;;12.10;10.05;;;;;;;;;;4796662;29;20043;-83
2022/11/19 11:08:54;;;;;;;9.70;8.80;;;;;;;;;;4786637;29;20117;-82
2022/11/19 11:14:50;;;;;;;9.85;8.85;;;;;;;;;;4790591;29;20480;-82
2022/11/19 11:17:01;;;;;;;10.80;8.00;;;;;;;;;;4794733;29;20418;-82
2022/11/19 11:19:29;;;;;;;10.77;8.93;;;;;;;;;;4795188;29;20050;-82
2022/11/19 11:21:57;;;;;;;10.50;8.57;;;;;;;;;;4804402;29;20043;-84
2022/11/19 11:24:32;;;;;;;10.73;9.63;;;;;;;;;;4809101;29;20427;-83
2022/11/19 11:27:18;;;;;;;9.57;8.68;;;;;;;;;;4803501;29;20070;-83
2022/11/19 11:29:46;;;;;;;14.48;10.65;;;;;;;;;;4808605;29;20085;-83
2022/11/19 11:32:26;;;;;;;16.30;11.45;;;;;;;;;;4793955;29;20071;-81
2022/11/19 11:34:54;;;;;;;10.82;9.75;;;;;;;;;;4785537;29;20051;-82
2022/11/19 11:37:24;;;;;;;8.95;8.13;;;;;;;;;;4791731;29;20055;-82
2022/11/19 11:40:01;;;;;;;13.45;11.20;;;;;;;;;;4788369;29;20716;-82
2022/11/19 11:42:29;;;;;;;8.95;7.22;;;;;;;;;;4785489;29;20055;-82
2022/11/19 11:44:58;;;;;;;8.63;7.80;;;;;;;;;;4787346;29;20357;-84
2022/11/19 11:47:37;;;;;;;8.73;7.82;;;;;;;;;;4811944;29;20046;-82
2022/11/19 11:50:23;;;;;;;8.52;7.45;;;;;;;;;;4800175;29;20533;-82
2022/11/19 11:52:54;;;;;;;9.75;8.10;;;;;;;;;;4801412;29;20046;-84
2022/11/19 11:55:24;;;;;;;8.52;7.50;;;;;;;;;;4767015;29;20502;-83
2022/11/19 11:57:52;;;;;;;9.35;8.45;;;;;;;;;;4775183;29;20142;-81
2022/11/19 12:00:39;;;;;;;13.48;10.40;;;;;;;;;;4793558;29;20047;-83
2022/11/19 12:03:06;;;;;;;9.45;8.43;;;;;;;;;;4771270;29;20059;-83
2022/11/19 12:05:43;;;;;;;12.30;10.77;;;;;;;;;;4777657;29;20069;-82
2022/11/19 12:08:11;;;;;;;10.25;9.25;;;;;;;;;;4788847;29;20456;-82
2022/11/19 12:10:42;;;;;;;11.27;9.23;;;;;;;;;;4774870;29;20074;-83
2022/11/19 12:13:28;;;;;;;10.63;9.52;;;;;;;;;;4773090;29;20183;-83
2022/11/19 12:16:15;;;;;;;11.75;9.13;;;;;;;;;;4778393;29;20333;-84
2022/11/19 12:18:52;;;;;;;10.27;9.27;;;;;;;;;;4785877;29;20061;-84
2022/11/19 12:21:27;;;;;;;15.93;13.40;;;;;;;;;;4796900;29;20528;-83
2022/11/19 12:24:02;;;;;;;10.68;9.57;;;;;;;;;;4774522;29;20053;-85
2022/11/19 12:26:39;;;;;;;10.82;9.88;;;;;;;;;;4783008;29;20414;-85
2022/11/19 12:29:21;;;;;;;7.88;7.28;;;;;;;;;;4796927;29;20339;-83
2022/11/19 12:32:00;;;;;;;8.82;8.02;;;;;;;;;;4793392;29;20057;-84
2022/11/19 12:34:43;;;;;;;10.82;9.93;;;;;;;;;;4798767;29;20103;-84
2022/11/19 12:37:17;;;;;;;10.98;9.82;;;;;;;;;;4787978;29;20100;-83
2022/11/19 12:40:02;;;;;;;8.48;7.68;;;;;;;;;;4775629;29;20118;-83
2022/11/19 12:42:44;;;;;;;9.68;8.70;;;;;;;;;;4788968;29;20075;-83
2022/11/19 12:45:36;;;;;;;8.55;7.78;;;;;;;;;;4778052;29;20055;-83
2022/11/19 12:48:42;;;;;;;9.05;8.13;;;;;;;;;;4776993;29;20067;-83
2022/11/19 12:51:50;;;;;;;9.90;9.07;;;;;;;;;;4796837;29;20050;-83
2022/11/19 12:55:22;;;;;;;8.02;7.32;;;;;;;;;;4782493;29;20416;-84
2022/11/19 12:58:07;;;;;;;8.95;8.05;;;;;;;;;;4792193;29;20055;-83
2022/11/19 13:01:28;;;;;;;9.00;8.10;;;;;;;;;;4792020;29;20055;-81
2022/11/19 13:04:17;;;;;;;9.10;8.07;;;;;;;;;;4787769;29;20050;-81
2022/11/19 13:07:11;;;;;;;8.88;7.88;;;;;;;;;;4772206;29;20112;-83
2022/11/19 13:10:01;;;;;;;9.48;8.63;;;;;;;;;;4812733;29;20055;-84
2022/11/19 13:12:52;;;;;;;9.05;8.30;;;;;;;;;;4788584;29;20119;-81
2022/11/19 13:15:54;;;;;;;10.15;9.15;;;;;;;;;;4812261;29;20064;-84
2022/11/19 13:18:30;;;;;;;8.20;7.53;;;;;;;;;;4810917;29;20078;-82
2022/11/19 13:21:46;;;;;;;9.80;7.85;;;;;;;;;;4792560;29;20038;-83
2022/11/19 13:24:43;;;;;;;8.95;8.15;;;;;;;;;;4790821;29;20521;-83
2022/11/19 13:27:25;;;;;;;8.75;7.75;;;;;;;;;;4798518;29;20050;-82
2022/11/19 13:30:05;;;;;;;8.95;8.15;;;;;;;;;;4790866;29;20088;-81
2022/11/19 13:33:11;;;;;;;9.80;8.93;;;;;;;;;;4791586;29;20054;-82
2022/11/19 13:35:45;;;;;;;9.15;8.32;;;;;;;;;;4818630;29;20058;-82
2022/11/19 13:38:36;;;;;;;8.88;8.18;;;;;;;;;;4790037;29;20054;-81
2022/11/19 13:44:37;;;;;;;9.45;8.55;;;;;;;;;;4809236;29;20421;-80
2022/11/19 13:44:41;;;;;;;8.98;8.00;;;;;;;;;;4800450;29;20082;-83
2022/11/19 13:47:15;;;;;;;11.05;8.93;;;;;;;;;;4811746;29;20081;-82
2022/11/19 13:50:08;;;;;;;8.73;7.90;;;;;;;;;;4814851;29;20046;-82
2022/11/19 13:53:05;;;;;;;10.30;9.32;;;;;;;;;;4785935;29;20145;-80
2022/11/19 13:55:40;;;;;;;10.48;9.48;;;;;;;;;;4820641;29;20046;-82
2022/11/19 13:58:38;;;;;;;9.45;8.15;;;;;;;;;;4784287;29;20069;-82
2022/11/19 14:01:21;;;;;;;12.07;10.32;;;;;;;;;;4805286;29;20051;-82
2022/11/19 14:04:10;;;;;;;10.68;9.60;;;;;;;;;;4807589;29;20613;-81
2022/11/19 14:07:17;;;;;;;11.23;10.02;;;;;;;;;;4815275;29;20053;-83
2022/11/19 14:10:06;;;;;;;10.60;9.55;;;;;;;;;;4765592;29;20483;-81
2022/11/19 14:12:59;;;;;;;11.52;10.30;;;;;;;;;;4800059;29;20051;-81
2022/11/19 14:27:22;;;;;;;12.25;11.05;;;;;;;;;;4797221;29;20051;-81
2022/11/19 14:29:49;;;;;;;15.63;12.70;;;;;;;;;;4787061;29;20086;-81
2022/11/19 14:32:30;;;;;;;14.52;11.32;;;;;;;;;;4770726;29;20150;-81
2022/11/19 14:35:01;;;;;;;13.20;9.77;;;;;;;;;;4769954;29;20131;-82
2022/11/19 14:37:39;;;;;;;11.85;9.70;;;;;;;;;;4789405;29;20065;-81
2022/11/19 14:40:15;;;;;;;13.52;10.45;;;;;;;;;;4799672;29;20067;-82
2022/11/19 14:46:07;;;;;;;13.35;10.73;;;;;;;;;;4805053;29;20051;-81
2022/11/19 14:48:38;;;;;;;13.55;10.98;;;;;;;;;;4794053;29;20536;-81
2022/11/19 14:51:14;;;;;;;14.77;11.98;;;;;;;;;;4791040;29;21034;-81
2022/11/19 14:54:11;;;;;;;12.82;10.27;;;;;;;;;;4788828;29;20047;-81
2022/11/19 14:56:39;;;;;;;15.10;11.57;;;;;;;;;;4781477;29;20057;-80
2022/11/19 14:59:16;;;;;;;17.80;12.88;;;;;;;;;;4793053;29;20055;-80
2022/11/19 15:01:53;;;;;;;15.50;12.20;;;;;;;;;;4802920;29;20051;-82
2022/11/19 15:04:22;;;;;;;21.70;13.70;;;;;;;;;;4819577;29;20074;-79
2022/11/19 15:06:50;;;;;;;28.63;15.90;;;;;;;;;;4812105;29;20055;-80
2022/11/19 15:09:40;;;;;;;19.38;13.05;;;;;;;;;;4810430;29;20061;-81
2022/11/19 15:12:08;;;;;;;18.40;13.07;;;;;;;;;;4801354;29;20047;-81
2022/11/19 15:15:03;;;;;;;23.25;15.25;;;;;;;;;;4805546;29;20107;-80
2022/11/19 15:17:29;;;;;;;21.27;13.75;;;;;;;;;;4800853;29;20043;-80
2022/11/19 15:20:15;;;;;;;23.65;13.38;;;;;;;;;;4801670;29;20054;-81
2022/11/19 15:23:00;;;;;;;21.88;16.88;;;;;;;;;;4784142;29;20540;-80
2022/11/19 15:25:47;;;;;;;31.05;16.52;;;;;;;;;;4790551;29;20111;-81
2022/11/19 15:28:33;;;;;;;25.77;14.60;;;;;;;;;;4784647;29;20065;-79
2022/11/19 15:31:10;;;;;;;23.35;15.27;;;;;;;;;;4773029;29;20066;-80
2022/11/19 15:33:59;;;;;;;27.80;15.27;;;;;;;;;;4817425;29;20046;-80
2022/11/19 15:36:41;;;;;;;25.42;15.52;;;;;;;;;;4773226;29;20059;-80
2022/11/19 15:39:21;;;;;;;19.83;14.40;;;;;;;;;;4783030;29;20055;-79
2022/11/19 15:42:02;;;;;;;19.45;13.95;;;;;;;;;;4793121;29;20042;-80